createdAt,value
2022-09-28T00:00:32.450Z,0.00
2022-09-28T00:01:32.499Z,0.00
2022-09-28T00:02:32.514Z,0.00
2022-09-28T00:03:32.456Z,0.00
2022-09-28T00:04:32.423Z,0.00
2022-09-28T00:05:32.414Z,0.00
2022-09-28T00:06:32.405Z,0.00
2022-09-28T00:07:32.397Z,0.00
2022-09-28T00:08:32.413Z,0.00
2022-09-28T00:09:32.375Z,0.00
2022-09-28T00:10:32.357Z,0.00
2022-09-28T00:11:32.354Z,0.00
2022-09-28T00:12:32.348Z,0.00
2022-09-28T00:13:32.375Z,0.00
2022-09-28T00:14:32.334Z,0.00
2022-09-28T00:15:32.325Z,0.00
2022-09-28T00:16:32.352Z,0.00
2022-09-28T00:17:32.311Z,0.00
2022-09-28T00:18:32.334Z,0.00
2022-09-28T00:19:32.296Z,0.00
2022-09-28T00:20:32.292Z,0.00
2022-09-28T00:21:32.284Z,0.00
2022-09-28T00:22:32.271Z,0.00
2022-09-28T00:23:32.296Z,0.00
2022-09-28T00:24:32.254Z,0.00
2022-09-28T00:25:32.245Z,0.00
2022-09-28T00:26:32.234Z,0.00
2022-09-28T00:27:32.217Z,0.00
2022-09-28T00:28:32.253Z,0.00
2022-09-28T00:29:32.216Z,0.00
2022-09-28T00:30:32.204Z,0.00
2022-09-28T00:31:32.234Z,0.00
2022-09-28T00:32:32.189Z,0.00
2022-09-28T00:33:32.205Z,0.00
2022-09-28T00:34:32.182Z,0.00
2022-09-28T00:35:32.161Z,0.00
2022-09-28T00:36:32.163Z,0.00
2022-09-28T00:37:32.145Z,0.00
2022-09-28T00:38:32.173Z,0.00
2022-09-28T00:39:32.129Z,0.00
2022-09-28T00:40:32.166Z,0.00
2022-09-28T00:41:32.120Z,0.00
2022-09-28T00:42:32.113Z,0.00
2022-09-28T00:43:32.135Z,0.00
2022-09-28T00:44:32.091Z,0.00
2022-09-28T00:45:32.148Z,0.00
2022-09-28T00:46:33.073Z,0.00
2022-09-28T00:47:32.064Z,0.00
2022-09-28T00:48:32.090Z,0.00
2022-09-28T00:49:32.048Z,0.00
2022-09-28T00:50:32.045Z,0.00
2022-09-28T00:51:32.038Z,0.00
2022-09-28T00:52:32.028Z,0.00
2022-09-28T00:53:32.017Z,0.00
2022-09-28T00:54:32.047Z,0.00
2022-09-28T00:55:32.004Z,0.00
2022-09-28T00:56:31.993Z,0.00
2022-09-28T00:57:31.982Z,0.00
2022-09-28T00:58:31.979Z,0.00
2022-09-28T00:59:31.998Z,0.00
2022-09-28T01:00:32.019Z,0.00
2022-09-28T01:01:31.954Z,0.00
2022-09-28T01:02:32.035Z,0.00
2022-09-28T01:03:31.937Z,0.00
2022-09-28T01:04:31.957Z,0.00
2022-09-28T01:05:31.917Z,0.00
2022-09-28T01:06:31.910Z,0.00
2022-09-28T01:07:31.904Z,0.00
2022-09-28T01:08:31.893Z,0.00
2022-09-28T01:09:31.913Z,0.00
2022-09-28T01:10:31.883Z,0.00
2022-09-28T01:11:31.869Z,0.00
2022-09-28T01:12:31.859Z,0.00
2022-09-28T01:13:31.856Z,0.00
2022-09-28T01:14:31.871Z,0.00
2022-09-28T01:15:31.839Z,0.00
2022-09-28T01:16:31.865Z,0.00
2022-09-28T01:17:31.821Z,0.00
2022-09-28T01:18:31.816Z,0.00
2022-09-28T01:19:31.833Z,0.00
2022-09-28T01:20:31.802Z,0.00
2022-09-28T01:21:31.787Z,0.00
2022-09-28T01:22:31.774Z,0.00
2022-09-28T01:23:31.766Z,0.00
2022-09-28T01:24:31.786Z,0.00
2022-09-28T01:25:31.750Z,0.00
2022-09-28T01:26:31.739Z,0.00
2022-09-28T01:27:31.735Z,0.00
2022-09-28T01:28:31.723Z,0.00
2022-09-28T01:29:31.745Z,0.00
2022-09-28T01:30:31.708Z,0.00
2022-09-28T01:31:31.761Z,0.00
2022-09-28T01:32:31.694Z,0.00
2022-09-28T01:33:31.678Z,0.00
2022-09-28T01:34:31.699Z,0.00
2022-09-28T01:35:31.668Z,0.00
2022-09-28T01:36:31.653Z,0.00
2022-09-28T01:37:31.649Z,0.00
2022-09-28T01:38:31.639Z,0.00
2022-09-28T01:39:31.656Z,0.00
2022-09-28T01:40:31.651Z,0.00
2022-09-28T01:41:31.619Z,0.00
2022-09-28T01:42:31.604Z,0.00
2022-09-28T01:43:31.597Z,0.00
2022-09-28T01:44:31.626Z,0.00
2022-09-28T01:45:31.632Z,0.00
2022-09-28T01:46:31.575Z,0.00
2022-09-28T01:47:31.576Z,0.00
2022-09-28T01:48:31.562Z,0.00
2022-09-28T01:49:31.575Z,0.00
2022-09-28T01:50:31.543Z,0.00
2022-09-28T01:51:31.534Z,0.00
2022-09-28T01:52:31.535Z,0.00
2022-09-28T01:53:31.522Z,0.00
2022-09-28T01:54:31.538Z,0.00
2022-09-28T01:55:31.511Z,0.00
2022-09-28T01:56:31.500Z,0.00
2022-09-28T01:57:31.494Z,0.00
2022-09-28T01:58:31.474Z,0.00
2022-09-28T01:59:31.493Z,0.00
2022-09-28T02:00:31.507Z,0.00
2022-09-28T02:01:31.456Z,0.00
2022-09-28T02:02:31.519Z,0.00
2022-09-28T02:03:31.437Z,0.00
2022-09-28T02:04:31.462Z,0.00
2022-09-28T02:05:31.414Z,0.00
2022-09-28T02:06:31.415Z,0.00
2022-09-28T02:07:31.400Z,0.00
2022-09-28T02:08:31.387Z,0.00
2022-09-28T02:09:33.799Z,0.00
2022-09-28T02:10:32.374Z,0.00
2022-09-28T02:11:31.369Z,0.00
2022-09-28T02:12:31.354Z,0.00
2022-09-28T02:13:31.346Z,0.00
2022-09-28T02:14:31.364Z,0.00
2022-09-28T02:15:31.329Z,0.00
2022-09-28T02:16:31.407Z,0.00
2022-09-28T02:17:31.312Z,0.00
2022-09-28T02:18:31.309Z,0.00
2022-09-28T02:19:31.330Z,0.00
2022-09-28T02:20:31.294Z,0.00
2022-09-28T02:21:31.278Z,0.00
2022-09-28T02:22:31.275Z,0.00
2022-09-28T02:23:31.338Z,0.00
2022-09-28T02:24:31.284Z,0.00
2022-09-28T02:25:31.253Z,0.00
2022-09-28T02:26:31.261Z,0.00
2022-09-28T02:27:31.230Z,0.00
2022-09-28T02:28:31.222Z,0.00
2022-09-28T02:29:31.250Z,0.00
2022-09-28T02:30:31.203Z,0.00
2022-09-28T02:31:31.249Z,0.00
2022-09-28T02:32:31.188Z,0.00
2022-09-28T02:33:31.179Z,0.00
2022-09-28T02:34:31.191Z,0.00
2022-09-28T02:35:31.162Z,0.00
2022-09-28T02:36:31.153Z,0.00
2022-09-28T02:37:31.149Z,0.00
2022-09-28T02:38:31.146Z,0.00
2022-09-28T02:39:31.154Z,0.00
2022-09-28T02:40:31.153Z,0.00
2022-09-28T02:41:31.114Z,0.00
2022-09-28T02:42:31.115Z,0.00
2022-09-28T02:43:31.102Z,0.00
2022-09-28T02:44:31.114Z,0.00
2022-09-28T02:45:31.098Z,0.00
2022-09-28T02:46:31.078Z,0.00
2022-09-28T02:47:31.063Z,0.00
2022-09-28T02:48:45.737Z,0.00
2022-09-28T02:49:33.295Z,0.00
2022-09-28T02:50:31.041Z,0.00
2022-09-28T02:51:31.043Z,0.00
2022-09-28T02:52:31.026Z,0.00
2022-09-28T02:53:31.017Z,0.00
2022-09-28T02:54:31.046Z,0.00
2022-09-28T02:55:31.009Z,0.00
2022-09-28T02:56:30.991Z,0.00
2022-09-28T02:57:30.986Z,0.00
2022-09-28T02:58:30.975Z,0.00
2022-09-28T02:59:30.997Z,0.00
2022-09-28T03:00:30.956Z,0.00
2022-09-28T03:01:30.949Z,0.00
2022-09-28T03:02:31.025Z,0.00
2022-09-28T03:03:30.936Z,0.00
2022-09-28T03:04:30.955Z,0.00
2022-09-28T03:05:30.914Z,0.00
2022-09-28T03:06:30.908Z,0.00
2022-09-28T03:07:30.900Z,0.00
2022-09-28T03:08:30.891Z,0.00
2022-09-28T03:09:30.911Z,0.00
2022-09-28T03:10:30.875Z,0.00
2022-09-28T03:11:30.871Z,0.00
2022-09-28T03:12:30.857Z,0.00
2022-09-28T03:13:30.864Z,0.00
2022-09-28T03:14:30.870Z,0.00
2022-09-28T03:15:30.829Z,0.00
2022-09-28T03:16:30.842Z,0.00
2022-09-28T03:17:30.829Z,0.00
2022-09-28T03:18:30.808Z,0.00
2022-09-28T03:19:30.841Z,0.00
2022-09-28T03:20:30.793Z,0.00
2022-09-28T03:21:30.784Z,0.00
2022-09-28T03:22:30.773Z,0.00
2022-09-28T03:23:30.765Z,0.00
2022-09-28T03:24:30.792Z,0.00
2022-09-28T03:25:30.750Z,0.00
2022-09-28T03:26:30.747Z,0.00
2022-09-28T03:27:30.737Z,0.00
2022-09-28T03:28:30.725Z,0.00
2022-09-28T03:29:30.719Z,0.00
2022-09-28T03:30:30.737Z,0.00
2022-09-28T03:31:30.747Z,0.00
2022-09-28T03:32:30.693Z,0.00
2022-09-28T03:33:30.684Z,0.00
2022-09-28T03:34:30.712Z,0.00
2022-09-28T03:35:30.671Z,0.00
2022-09-28T03:36:30.659Z,0.00
2022-09-28T03:37:30.648Z,0.00
2022-09-28T03:38:30.643Z,0.00
2022-09-28T03:39:30.635Z,0.00
2022-09-28T03:40:30.708Z,0.00
2022-09-28T03:41:30.613Z,0.00
2022-09-28T03:42:30.614Z,0.00
2022-09-28T03:43:30.596Z,0.00
2022-09-28T03:44:30.583Z,0.00
2022-09-28T03:45:30.646Z,0.00
2022-09-28T03:46:30.579Z,0.00
2022-09-28T03:47:30.563Z,0.00
2022-09-28T03:48:32.660Z,0.00
2022-09-28T03:49:31.579Z,0.00
2022-09-28T03:50:30.542Z,0.00
2022-09-28T03:51:30.542Z,0.00
2022-09-28T03:52:30.525Z,0.00
2022-09-28T03:53:30.512Z,0.00
2022-09-28T03:54:30.542Z,0.00
2022-09-28T03:55:30.503Z,0.00
2022-09-28T03:56:30.492Z,0.00
2022-09-28T03:57:30.484Z,0.00
2022-09-28T03:58:30.477Z,0.00
2022-09-28T03:59:30.498Z,0.00
2022-09-28T04:00:30.459Z,0.00
2022-09-28T04:01:30.507Z,0.00
2022-09-28T04:02:30.492Z,0.00
2022-09-28T04:03:30.431Z,0.00
2022-09-28T04:04:30.461Z,0.00
2022-09-28T04:05:30.428Z,0.00
2022-09-28T04:06:30.409Z,0.00
2022-09-28T04:07:31.308Z,0.00
2022-09-28T04:08:31.392Z,0.00
2022-09-28T04:09:30.416Z,0.00
2022-09-28T04:10:30.376Z,0.00
2022-09-28T04:11:43.045Z,0.00
2022-09-28T04:12:32.360Z,0.00
2022-09-28T04:13:30.358Z,0.00
2022-09-28T04:14:30.372Z,0.00
2022-09-28T04:15:30.332Z,0.00
2022-09-28T04:16:30.409Z,0.00
2022-09-28T04:17:30.328Z,0.00
2022-09-28T04:18:30.310Z,0.00
2022-09-28T04:19:30.338Z,0.00
2022-09-28T04:20:30.290Z,0.00
2022-09-28T04:21:30.289Z,0.00
2022-09-28T04:22:30.278Z,0.00
2022-09-28T04:23:30.268Z,0.00
2022-09-28T04:24:30.290Z,0.00
2022-09-28T04:25:30.255Z,0.00
2022-09-28T04:26:30.250Z,0.00
2022-09-28T04:27:30.242Z,0.00
2022-09-28T04:28:30.233Z,0.00
2022-09-28T04:29:30.249Z,0.00
2022-09-28T04:30:30.220Z,0.00
2022-09-28T04:31:30.235Z,0.00
2022-09-28T04:32:30.198Z,0.00
2022-09-28T04:33:30.191Z,0.00
2022-09-28T04:34:35.136Z,0.00
2022-09-28T04:35:32.174Z,0.00
2022-09-28T04:36:30.171Z,0.00
2022-09-28T04:37:30.159Z,0.00
2022-09-28T04:38:48.818Z,0.00
2022-09-28T04:39:32.174Z,0.00
2022-09-28T04:40:30.288Z,0.00
2022-09-28T04:41:30.126Z,0.00
2022-09-28T04:42:30.112Z,0.00
2022-09-28T04:43:30.110Z,0.00
2022-09-28T04:44:30.137Z,0.00
2022-09-28T04:45:30.130Z,0.00
2022-09-28T04:46:30.075Z,0.00
2022-09-28T04:47:30.075Z,0.00
2022-09-28T04:48:30.062Z,0.00
2022-09-28T04:49:30.046Z,0.00
2022-09-28T04:50:30.077Z,0.00
2022-09-28T04:51:30.033Z,0.00
2022-09-28T04:52:30.026Z,0.00
2022-09-28T04:53:30.017Z,0.00
2022-09-28T04:54:30.006Z,0.00
2022-09-28T04:55:30.032Z,0.00
2022-09-28T04:56:29.995Z,0.00
2022-09-28T04:57:29.986Z,0.00
2022-09-28T04:58:29.988Z,0.00
2022-09-28T04:59:29.986Z,0.00
2022-09-28T05:00:29.987Z,0.00
2022-09-28T05:01:30.023Z,0.00
2022-09-28T05:02:29.983Z,0.00
2022-09-28T05:03:29.933Z,0.00
2022-09-28T05:04:29.929Z,0.00
2022-09-28T05:05:29.949Z,0.00
2022-09-28T05:06:29.907Z,0.00
2022-09-28T05:07:29.904Z,0.00
2022-09-28T05:08:29.894Z,0.00
2022-09-28T05:09:29.889Z,0.00
2022-09-28T05:10:29.907Z,0.00
2022-09-28T05:11:29.869Z,0.00
2022-09-28T05:12:29.856Z,0.00
2022-09-28T05:13:29.850Z,0.00
2022-09-28T05:14:29.843Z,0.00
2022-09-28T05:15:29.864Z,0.00
2022-09-28T05:16:29.901Z,0.00
2022-09-28T05:17:29.818Z,0.00
2022-09-28T05:18:29.809Z,0.00
2022-09-28T05:19:29.815Z,0.00
2022-09-28T05:20:29.834Z,0.00
2022-09-28T05:21:29.785Z,0.00
2022-09-28T05:22:29.787Z,0.00
2022-09-28T05:23:29.761Z,0.00
2022-09-28T05:24:29.763Z,0.00
2022-09-28T05:25:29.780Z,5.62
2022-09-28T05:26:29.757Z,5.62
2022-09-28T05:27:29.750Z,5.62
2022-09-28T05:28:29.745Z,5.62
2022-09-28T05:29:32.268Z,5.62
2022-09-28T05:30:30.750Z,5.62
2022-09-28T05:31:29.785Z,5.62
2022-09-28T05:32:29.691Z,5.62
2022-09-28T05:33:29.693Z,5.62
2022-09-28T05:34:29.672Z,5.62
2022-09-28T05:35:29.697Z,11.25
2022-09-28T05:36:29.666Z,11.25
2022-09-28T05:37:29.652Z,11.25
2022-09-28T05:38:29.643Z,11.25
2022-09-28T05:39:29.636Z,11.25
2022-09-28T05:40:29.662Z,11.25
2022-09-28T05:41:29.778Z,11.25
2022-09-28T05:42:29.613Z,11.25
2022-09-28T05:43:29.603Z,11.25
2022-09-28T05:44:29.601Z,11.25
2022-09-28T05:45:29.597Z,11.25
2022-09-28T05:46:29.665Z,11.25
2022-09-28T05:47:29.571Z,11.25
2022-09-28T05:48:29.563Z,11.25
2022-09-28T05:49:29.549Z,11.25
2022-09-28T05:50:29.546Z,11.25
2022-09-28T05:51:29.570Z,11.25
2022-09-28T05:52:29.532Z,11.25
2022-09-28T05:53:29.523Z,11.25
2022-09-28T05:54:29.514Z,11.25
2022-09-28T05:55:29.561Z,11.25
2022-09-28T05:56:29.526Z,11.25
2022-09-28T05:57:29.491Z,11.25
2022-09-28T05:58:29.486Z,11.25
2022-09-28T05:59:29.496Z,11.25
2022-09-28T06:00:29.573Z,16.88
2022-09-28T06:01:29.528Z,11.25
2022-09-28T06:02:29.482Z,11.25
2022-09-28T06:03:29.439Z,11.25
2022-09-28T06:04:29.437Z,16.88
2022-09-28T06:05:29.461Z,16.88
2022-09-28T06:06:29.413Z,16.88
2022-09-28T06:07:29.413Z,22.50
2022-09-28T06:08:29.399Z,28.12
2022-09-28T06:09:29.396Z,28.12
2022-09-28T06:10:29.423Z,33.75
2022-09-28T06:11:29.413Z,33.75
2022-09-28T06:12:29.368Z,33.75
2022-09-28T06:13:29.376Z,39.38
2022-09-28T06:14:29.353Z,39.38
2022-09-28T06:15:29.367Z,39.38
2022-09-28T06:16:29.421Z,39.38
2022-09-28T06:17:29.326Z,45.00
2022-09-28T06:18:29.316Z,45.00
2022-09-28T06:19:29.321Z,50.62
2022-09-28T06:20:29.333Z,56.25
2022-09-28T06:21:29.299Z,56.25
2022-09-28T06:22:29.288Z,61.88
2022-09-28T06:23:29.290Z,67.50
2022-09-28T06:24:29.267Z,67.50
2022-09-28T06:25:29.296Z,67.50
2022-09-28T06:26:29.258Z,67.50
2022-09-28T06:27:29.245Z,73.12
2022-09-28T06:28:29.245Z,73.12
2022-09-28T06:29:29.241Z,78.75
2022-09-28T06:30:29.334Z,73.12
2022-09-28T06:31:29.216Z,73.12
2022-09-28T06:32:29.209Z,78.75
2022-09-28T06:33:29.195Z,78.75
2022-09-28T06:34:29.386Z,84.38
2022-09-28T06:35:29.215Z,84.38
2022-09-28T06:36:29.184Z,90.00
2022-09-28T06:37:29.171Z,84.38
2022-09-28T06:38:29.155Z,90.00
2022-09-28T06:39:29.148Z,95.62
2022-09-28T06:40:29.316Z,101.25
2022-09-28T06:41:29.129Z,101.25
2022-09-28T06:42:29.139Z,106.88
2022-09-28T06:43:34.150Z,106.88
2022-09-28T06:44:31.099Z,112.50
2022-09-28T06:45:29.119Z,118.12
2022-09-28T06:46:29.144Z,118.12
2022-09-28T06:47:29.087Z,118.12
2022-09-28T06:48:29.071Z,112.50
2022-09-28T06:49:29.066Z,112.50
2022-09-28T06:50:29.057Z,106.88
2022-09-28T06:51:29.071Z,106.88
2022-09-28T06:52:29.036Z,106.88
2022-09-28T06:53:29.036Z,106.88
2022-09-28T06:54:29.030Z,106.88
2022-09-28T06:55:29.046Z,106.88
2022-09-28T06:56:32.688Z,106.88
2022-09-28T06:57:29.995Z,106.88
2022-09-28T06:58:28.990Z,112.50
2022-09-28T06:59:28.988Z,118.12
2022-09-28T07:00:29.008Z,129.38
2022-09-28T07:01:29.025Z,140.62
2022-09-28T07:02:29.007Z,146.25
2022-09-28T07:03:28.952Z,163.12
2022-09-28T07:04:28.945Z,180.00
2022-09-28T07:05:28.962Z,202.50
2022-09-28T07:06:28.918Z,225.00
2022-09-28T07:07:28.914Z,241.88
2022-09-28T07:08:28.906Z,247.50
2022-09-28T07:09:32.969Z,247.50
2022-09-28T07:10:30.911Z,236.25
2022-09-28T07:11:28.894Z,225.00
2022-09-28T07:12:28.876Z,208.12
2022-09-28T07:13:48.828Z,196.88
2022-09-28T07:14:46.735Z,191.25
2022-09-28T07:15:30.885Z,191.25
2022-09-28T07:16:46.274Z,202.50
2022-09-28T07:17:31.174Z,213.75
2022-09-28T07:18:28.919Z,225.00
2022-09-28T07:19:28.812Z,236.25
2022-09-28T07:20:29.837Z,247.50
2022-09-28T07:21:30.638Z,258.75
2022-09-28T07:22:40.920Z,275.62
2022-09-28T07:23:31.051Z,281.25
2022-09-28T07:24:28.769Z,281.25
2022-09-28T07:25:28.797Z,275.62
2022-09-28T07:26:28.761Z,270.00
2022-09-28T07:27:29.104Z,247.50
2022-09-28T07:28:29.731Z,230.62
2022-09-28T07:29:28.729Z,213.75
2022-09-28T07:30:28.749Z,191.25
2022-09-28T07:31:28.744Z,168.75
2022-09-28T07:32:28.710Z,157.50
2022-09-28T07:33:28.696Z,151.88
2022-09-28T07:34:28.690Z,151.88
2022-09-28T07:35:28.716Z,146.25
2022-09-28T07:36:28.667Z,140.62
2022-09-28T07:37:28.662Z,135.00
2022-09-28T07:38:28.651Z,129.38
2022-09-28T07:39:28.876Z,129.38
2022-09-28T07:40:28.663Z,129.38
2022-09-28T07:41:28.652Z,129.38
2022-09-28T07:42:28.619Z,129.38
2022-09-28T07:43:28.610Z,129.38
2022-09-28T07:44:28.610Z,135.00
2022-09-28T07:45:28.638Z,146.25
2022-09-28T07:46:28.624Z,180.00
2022-09-28T07:47:33.881Z,208.12
2022-09-28T07:48:30.573Z,241.88
2022-09-28T07:49:28.564Z,264.38
2022-09-28T07:50:28.594Z,264.38
2022-09-28T07:51:28.549Z,264.38
2022-09-28T07:52:28.551Z,253.12
2022-09-28T07:53:28.545Z,230.62
2022-09-28T07:54:28.527Z,208.12
2022-09-28T07:55:28.515Z,213.75
2022-09-28T07:56:28.540Z,247.50
2022-09-28T07:57:28.507Z,320.62
2022-09-28T07:58:28.498Z,348.75
2022-09-28T07:59:28.484Z,354.38
2022-09-28T08:00:33.209Z,365.62
2022-09-28T08:01:30.601Z,376.88
2022-09-28T08:02:54.087Z,433.12
2022-09-28T08:03:28.449Z,523.12
2022-09-28T08:04:28.443Z,697.50
2022-09-28T08:05:28.432Z,939.38
2022-09-28T08:06:28.453Z,2244.38
2022-09-28T08:07:28.422Z,3881.25
2022-09-28T08:08:28.407Z,1440.00
2022-09-28T08:09:28.399Z,1260.00
2022-09-28T08:10:28.397Z,742.50
2022-09-28T08:11:28.413Z,646.88
2022-09-28T08:12:28.375Z,534.38
2022-09-28T08:13:28.363Z,511.88
2022-09-28T08:14:28.361Z,495.00
2022-09-28T08:15:28.352Z,562.50
2022-09-28T08:16:28.471Z,736.88
2022-09-28T08:17:28.337Z,826.88
2022-09-28T08:18:28.322Z,1006.88
2022-09-28T08:19:28.325Z,1209.38
2022-09-28T08:20:28.312Z,630.00
2022-09-28T08:21:28.332Z,393.75
2022-09-28T08:22:29.327Z,320.62
2022-09-28T08:23:28.297Z,264.38
2022-09-28T08:24:28.278Z,213.75
2022-09-28T08:25:28.261Z,180.00
2022-09-28T08:26:28.291Z,163.12
2022-09-28T08:27:28.257Z,146.25
2022-09-28T08:28:28.239Z,146.25
2022-09-28T08:29:28.230Z,140.62
2022-09-28T08:30:28.270Z,146.25
2022-09-28T08:31:28.247Z,157.50
2022-09-28T08:32:28.219Z,174.38
2022-09-28T08:33:28.209Z,196.88
2022-09-28T08:34:28.187Z,225.00
2022-09-28T08:35:28.189Z,236.25
2022-09-28T08:36:28.205Z,230.62
2022-09-28T08:37:28.167Z,202.50
2022-09-28T08:38:28.159Z,180.00
2022-09-28T08:39:28.153Z,163.12
2022-09-28T08:40:28.185Z,146.25
2022-09-28T08:41:28.158Z,135.00
2022-09-28T08:42:28.127Z,129.38
2022-09-28T08:43:28.126Z,129.38
2022-09-28T08:44:28.113Z,140.62
2022-09-28T08:45:28.107Z,163.12
2022-09-28T08:46:28.167Z,180.00
2022-09-28T08:47:28.085Z,191.25
2022-09-28T08:48:28.074Z,208.12
2022-09-28T08:49:28.160Z,225.00
2022-09-28T08:50:28.058Z,247.50
2022-09-28T08:51:28.083Z,281.25
2022-09-28T08:52:28.042Z,292.50
2022-09-28T08:53:28.032Z,320.62
2022-09-28T08:54:28.038Z,365.62
2022-09-28T08:55:28.027Z,438.75
2022-09-28T08:56:28.042Z,528.75
2022-09-28T08:57:27.998Z,3009.38
2022-09-28T08:58:27.990Z,4539.38
2022-09-28T08:59:27.980Z,4635.00
2022-09-28T09:00:27.973Z,1833.75
2022-09-28T09:01:28.017Z,776.25
2022-09-28T09:02:27.997Z,888.75
2022-09-28T09:03:27.948Z,1845.00
2022-09-28T09:04:27.951Z,2385.00
2022-09-28T09:05:27.934Z,4725.00
2022-09-28T09:06:27.952Z,2486.25
2022-09-28T09:07:27.914Z,781.88
2022-09-28T09:08:27.902Z,714.38
2022-09-28T09:09:27.897Z,478.12
2022-09-28T09:10:27.901Z,399.38
2022-09-28T09:11:27.909Z,461.25
2022-09-28T09:12:27.879Z,635.62
2022-09-28T09:13:27.872Z,607.50
2022-09-28T09:14:27.861Z,849.38
2022-09-28T09:15:27.843Z,4263.75
2022-09-28T09:16:29.667Z,4471.88
2022-09-28T09:17:28.838Z,4933.12
2022-09-28T09:18:27.827Z,1288.12
2022-09-28T09:19:27.838Z,1940.62
2022-09-28T09:20:27.810Z,1147.50
2022-09-28T09:21:27.825Z,2700.00
2022-09-28T09:22:27.787Z,2846.25
2022-09-28T09:23:27.779Z,1760.62
2022-09-28T09:24:27.772Z,4696.88
2022-09-28T09:25:27.772Z,1102.50
2022-09-28T09:26:27.792Z,2205.00
2022-09-28T09:27:27.754Z,2829.38
2022-09-28T09:28:27.760Z,838.12
2022-09-28T09:29:27.736Z,686.25
2022-09-28T09:30:30.664Z,601.88
2022-09-28T09:31:28.742Z,568.12
2022-09-28T09:32:27.706Z,551.25
2022-09-28T09:33:27.695Z,562.50
2022-09-28T09:34:27.692Z,607.50
2022-09-28T09:35:30.588Z,635.62
2022-09-28T09:36:28.703Z,618.75
2022-09-28T09:37:27.669Z,607.50
2022-09-28T09:38:27.656Z,871.88
2022-09-28T09:39:27.648Z,540.00
2022-09-28T09:40:27.690Z,388.12
2022-09-28T09:41:27.661Z,371.25
2022-09-28T09:42:27.625Z,388.12
2022-09-28T09:43:30.888Z,438.75
2022-09-28T09:44:27.598Z,511.88
2022-09-28T09:45:27.596Z,2323.12
2022-09-28T09:46:27.646Z,736.88
2022-09-28T09:47:27.579Z,590.62
2022-09-28T09:48:27.577Z,624.38
2022-09-28T09:49:27.571Z,607.50
2022-09-28T09:50:27.552Z,675.00
2022-09-28T09:51:27.593Z,691.88
2022-09-28T09:52:27.591Z,916.88
2022-09-28T09:53:27.537Z,871.88
2022-09-28T09:54:27.527Z,860.62
2022-09-28T09:55:29.967Z,1226.25
2022-09-28T09:56:28.551Z,4303.12
2022-09-28T09:57:27.509Z,3982.50
2022-09-28T09:58:27.512Z,2891.25
2022-09-28T09:59:27.494Z,3037.50
2022-09-28T10:00:27.479Z,1074.38
2022-09-28T10:01:27.545Z,855.00
2022-09-28T10:02:27.534Z,832.50
2022-09-28T10:03:27.461Z,832.50
2022-09-28T10:04:27.443Z,776.25
2022-09-28T10:05:27.435Z,894.38
2022-09-28T10:06:27.435Z,2323.12
2022-09-28T10:07:27.454Z,3065.62
2022-09-28T10:08:27.423Z,4263.75
2022-09-28T10:09:27.410Z,4331.25
2022-09-28T10:10:27.395Z,1102.50
2022-09-28T10:11:27.390Z,1260.00
2022-09-28T10:12:27.440Z,2008.12
2022-09-28T10:13:27.370Z,967.50
2022-09-28T10:14:27.362Z,1800.00
2022-09-28T10:15:27.357Z,2165.62
2022-09-28T10:16:27.428Z,3296.25
2022-09-28T10:17:27.436Z,3718.12
2022-09-28T10:18:27.328Z,3684.38
2022-09-28T10:19:27.324Z,3982.50
2022-09-28T10:20:27.321Z,4162.50
2022-09-28T10:21:27.321Z,4218.75
2022-09-28T10:22:27.335Z,4539.38
2022-09-28T10:23:27.295Z,1845.00
2022-09-28T10:24:27.286Z,1468.12
2022-09-28T10:25:27.273Z,1411.88
2022-09-28T10:26:27.273Z,1591.88
2022-09-28T10:27:27.284Z,1198.12
2022-09-28T10:28:27.250Z,1980.00
2022-09-28T10:29:27.239Z,3971.25
2022-09-28T10:30:27.237Z,2801.25
2022-09-28T10:31:27.225Z,4162.50
2022-09-28T10:32:27.254Z,2840.62
2022-09-28T10:33:27.216Z,1535.62
2022-09-28T10:34:27.206Z,2435.62
2022-09-28T10:35:27.189Z,3808.12
2022-09-28T10:36:27.182Z,3718.12
2022-09-28T10:37:27.208Z,3633.75
2022-09-28T10:38:27.167Z,2986.88
2022-09-28T10:39:27.159Z,4331.25
2022-09-28T10:40:27.267Z,3600.00
2022-09-28T10:41:27.142Z,2356.88
2022-09-28T10:42:27.160Z,2002.50
2022-09-28T10:43:27.124Z,1501.88
2022-09-28T10:44:27.118Z,1417.50
2022-09-28T10:45:27.112Z,2221.88
2022-09-28T10:46:27.146Z,2182.50
2022-09-28T10:47:27.116Z,2896.88
2022-09-28T10:48:27.086Z,2053.12
2022-09-28T10:49:27.084Z,4303.12
2022-09-28T10:50:27.068Z,3971.25
2022-09-28T10:51:27.058Z,4151.25
2022-09-28T10:52:27.086Z,4044.38
2022-09-28T10:53:27.046Z,4325.62
2022-09-28T10:54:27.040Z,1732.50
2022-09-28T10:55:27.029Z,1130.62
2022-09-28T10:56:27.032Z,984.38
2022-09-28T10:57:27.041Z,4415.62
2022-09-28T10:58:26.995Z,3616.88
2022-09-28T10:59:27.998Z,1231.88
2022-09-28T11:00:26.995Z,1023.75
2022-09-28T11:01:27.051Z,1023.75
2022-09-28T11:02:27.052Z,4370.62
2022-09-28T11:03:26.968Z,4263.75
2022-09-28T11:04:26.957Z,2002.50
2022-09-28T11:05:26.947Z,4398.75
2022-09-28T11:06:26.951Z,3223.12
2022-09-28T11:07:26.956Z,3898.12
2022-09-28T11:08:26.935Z,4460.62
2022-09-28T11:09:29.847Z,3836.25
2022-09-28T11:10:27.910Z,1023.75
2022-09-28T11:11:26.909Z,956.25
2022-09-28T11:12:26.926Z,826.88
2022-09-28T11:13:26.887Z,1085.62
2022-09-28T11:14:26.883Z,2047.50
2022-09-28T11:15:26.866Z,1074.38
2022-09-28T11:16:26.904Z,1681.88
2022-09-28T11:17:26.880Z,1378.12
2022-09-28T11:18:26.844Z,765.00
2022-09-28T11:19:26.841Z,613.12
2022-09-28T11:20:28.286Z,556.88
2022-09-28T11:21:27.825Z,500.62
2022-09-28T11:22:26.852Z,483.75
2022-09-28T11:23:26.810Z,461.25
2022-09-28T11:24:27.359Z,444.38
2022-09-28T11:25:26.801Z,489.38
2022-09-28T11:26:26.779Z,731.25
2022-09-28T11:27:26.804Z,922.50
2022-09-28T11:28:26.764Z,742.50
2022-09-28T11:29:26.785Z,894.38
2022-09-28T11:30:26.787Z,1046.25
2022-09-28T11:31:26.742Z,1738.12
2022-09-28T11:32:26.764Z,1051.88
2022-09-28T11:33:26.726Z,1614.38
2022-09-28T11:34:41.699Z,3830.62
2022-09-28T11:35:28.709Z,4533.75
2022-09-28T11:36:26.702Z,4381.88
2022-09-28T11:37:26.724Z,3684.38
2022-09-28T11:38:26.684Z,4387.50
2022-09-28T11:39:26.676Z,4398.75
2022-09-28T11:40:26.733Z,4393.12
2022-09-28T11:41:26.657Z,4336.88
2022-09-28T11:42:26.682Z,3971.25
2022-09-28T11:43:26.646Z,4533.75
2022-09-28T11:44:29.516Z,2705.62
2022-09-28T11:45:28.620Z,3071.25
2022-09-28T11:46:26.704Z,3431.25
2022-09-28T11:47:26.645Z,4365.00
2022-09-28T11:48:26.612Z,1282.50
2022-09-28T11:49:26.585Z,1153.12
2022-09-28T11:50:26.593Z,748.12
2022-09-28T11:51:26.593Z,511.88
2022-09-28T11:52:26.598Z,427.50
2022-09-28T11:53:26.557Z,416.25
2022-09-28T11:54:26.555Z,444.38
2022-09-28T11:55:26.546Z,421.88
2022-09-28T11:56:26.546Z,483.75
2022-09-28T11:57:26.566Z,511.88
2022-09-28T11:58:26.537Z,517.50
2022-09-28T11:59:26.515Z,562.50
2022-09-28T12:00:26.509Z,1816.88
2022-09-28T12:01:26.504Z,1951.88
2022-09-28T12:02:26.645Z,2092.50
2022-09-28T12:03:26.567Z,2210.62
2022-09-28T12:04:26.487Z,2295.00
2022-09-28T12:05:26.479Z,2379.38
2022-09-28T12:06:26.458Z,1940.62
2022-09-28T12:07:26.483Z,1569.38
2022-09-28T12:08:26.442Z,2250.00
2022-09-28T12:09:26.440Z,1400.62
2022-09-28T12:10:26.430Z,1479.38
2022-09-28T12:11:26.419Z,2278.12
2022-09-28T12:12:26.439Z,1018.12
2022-09-28T12:13:26.401Z,1400.62
2022-09-28T12:14:26.399Z,1361.25
2022-09-28T12:15:26.393Z,933.75
2022-09-28T12:17:26.852Z,1136.25
2022-09-28T12:17:28.489Z,843.75
2022-09-28T12:18:26.365Z,725.62
2022-09-28T12:19:26.353Z,748.12
2022-09-28T12:20:26.337Z,759.38
2022-09-28T12:21:26.335Z,928.12
2022-09-28T12:22:26.357Z,776.25
2022-09-28T12:23:26.390Z,691.88
2022-09-28T12:24:26.312Z,613.12
2022-09-28T12:25:26.313Z,545.62
2022-09-28T12:26:26.293Z,478.12
2022-09-28T12:27:26.316Z,421.88
2022-09-28T12:28:26.286Z,365.62
2022-09-28T12:29:26.276Z,331.88
2022-09-28T12:30:26.268Z,303.75
2022-09-28T12:31:26.257Z,286.88
2022-09-28T12:32:26.280Z,281.25
2022-09-28T12:33:26.242Z,286.88
2022-09-28T12:34:26.233Z,281.25
2022-09-28T12:35:26.246Z,275.62
2022-09-28T12:36:26.236Z,264.38
2022-09-28T12:37:26.252Z,253.12
2022-09-28T12:38:26.201Z,247.50
2022-09-28T12:39:40.791Z,253.12
2022-09-28T12:40:28.215Z,247.50
2022-09-28T12:41:26.170Z,247.50
2022-09-28T12:42:26.198Z,241.88
2022-09-28T12:43:26.165Z,253.12
2022-09-28T12:44:26.145Z,275.62
2022-09-28T12:45:26.155Z,281.25
2022-09-28T12:46:26.181Z,281.25
2022-09-28T12:47:26.158Z,281.25